KMIW/MIW METAR and TAF weather

Enter ICAO airport designator
Station Type Date Time Source
KMIW METAR 2021/03/04 21:53 UTC NOAA

KMIW 042153Z AUTO 10013KT 8SM CLR 04/01 A3026 RMK AO2 SLP257 T00390011


Station Type Date Time Source
KMIW Decoded METAR 2021/03/04 21:53 UTC NOAA

MARSHALLTOWN MUNICIPAL AIRPORT , IA, United States (KMIW) 42-07N 92-55W 296M
Mar 04, 2021 - 04:53 PM EST / 2021.03.04 2153 UTC
Wind: from the E (100 degrees) at 15 MPH (13 KT):0
Visibility: 8 mile(s):0
Sky conditions: clear
Temperature: 39.0 F (3.9 C)
Dew Point: 34.0 F (1.1 C)
Relative Humidity: 81%
Pressure (altimeter): 30.26 in. Hg (1024 hPa)
ob: KMIW 042153Z AUTO 10013KT 8SM CLR 04/01 A3026 RMK AO2 SLP257 T00390011
cycle: 22

Station Type Date Time Source
KMIW TAF UTC NOAA

Error!

Example: see airport list